createdAt,value
2023-03-03T00:00:48.987Z,44.72
2023-03-03T00:03:19.295Z,37.55
2023-03-03T00:05:45.799Z,40.50
2023-03-03T00:08:12.719Z,37.08
2023-03-03T00:10:40.136Z,38.08
2023-03-03T00:13:15.223Z,42.95
2023-03-03T00:15:41.776Z,33.53
2023-03-03T00:18:18.919Z,39.17
2023-03-03T00:21:01.004Z,41.90
2023-03-03T00:23:39.522Z,47.83
2023-03-03T00:26:34.049Z,36.60
2023-03-03T00:29:01.915Z,44.55
2023-03-03T00:31:36.339Z,44.25
2023-03-03T00:34:18.379Z,38.85
2023-03-03T00:36:44.964Z,45.60
2023-03-03T00:39:31.503Z,35.08
2023-03-03T00:41:59.726Z,38.75
2023-03-03T00:44:38.312Z,34.78
2023-03-03T00:47:31.844Z,50.45
2023-03-03T00:50:29.878Z,42.78
2023-03-03T00:53:35.749Z,40.28
2023-03-03T00:56:02.275Z,42.00
2023-03-03T00:58:29.462Z,38.92
2023-03-03T01:00:59.056Z,40.40
2023-03-03T01:03:26.423Z,40.20
2023-03-03T01:05:54.367Z,43.50
2023-03-03T01:08:39.187Z,40.17
2023-03-03T01:11:26.681Z,40.28
2023-03-03T01:13:53.449Z,40.55
2023-03-03T01:16:20.428Z,43.03
2023-03-03T01:18:46.953Z,40.67
2023-03-03T01:21:13.712Z,39.40
2023-03-03T01:23:40.251Z,35.20
2023-03-03T01:26:07.031Z,45.58
2023-03-03T01:28:34.192Z,28.33
2023-03-03T01:31:02.710Z,31.33
2023-03-03T01:33:29.729Z,44.13
2023-03-03T01:36:34.533Z,44.65
2023-03-03T01:39:01.248Z,45.25
2023-03-03T01:41:33.879Z,40.63
2023-03-03T01:44:00.502Z,47.88
2023-03-03T01:46:44.998Z,45.17
2023-03-03T01:49:19.311Z,46.67
2023-03-03T01:51:51.830Z,39.00
2023-03-03T01:54:25.215Z,15.40
2023-03-03T01:56:57.780Z,41.90
2023-03-03T01:59:29.348Z,45.35
2023-03-03T02:01:56.011Z,46.08
2023-03-03T02:04:22.976Z,51.53
2023-03-03T02:06:58.067Z,43.00
2023-03-03T02:09:43.819Z,41.97
2023-03-03T02:12:13.773Z,46.97
2023-03-03T02:14:40.222Z,43.42
2023-03-03T02:17:06.905Z,51.22
2023-03-03T02:19:50.118Z,44.50
2023-03-03T02:22:21.894Z,40.35
2023-03-03T02:24:53.347Z,37.90
2023-03-03T02:27:19.861Z,41.53
2023-03-03T02:29:46.386Z,48.40
2023-03-03T02:32:12.984Z,49.67
2023-03-03T02:34:50.773Z,46.38
2023-03-03T02:37:18.245Z,45.85
2023-03-03T02:39:45.071Z,47.55
2023-03-03T02:42:17.525Z,45.00
2023-03-03T02:44:44.061Z,43.67
2023-03-03T02:47:10.582Z,43.42
2023-03-03T02:49:37.468Z,30.63
2023-03-03T02:52:07.142Z,42.53
2023-03-03T02:54:33.644Z,31.27
2023-03-03T02:57:01.099Z,30.60
2023-03-03T02:59:28.355Z,38.55
2023-03-03T03:01:55.116Z,46.13
2023-03-03T03:04:23.866Z,42.90
2023-03-03T03:06:51.322Z,40.47
2023-03-03T03:09:19.356Z,43.17
2023-03-03T03:11:45.947Z,40.15
2023-03-03T03:14:13.674Z,35.60
2023-03-03T03:16:40.914Z,38.47
2023-03-03T03:19:08.254Z,33.03
2023-03-03T03:21:35.112Z,37.63
2023-03-03T03:24:44.277Z,29.42
2023-03-03T03:27:10.753Z,34.33
2023-03-03T03:30:30.755Z,36.97
2023-03-03T03:32:57.254Z,39.42
2023-03-03T03:35:23.716Z,38.72
2023-03-03T03:37:50.204Z,36.85
2023-03-03T03:40:16.741Z,34.20
2023-03-03T03:42:49.318Z,41.50
2023-03-03T03:45:15.893Z,36.65
2023-03-03T03:47:42.689Z,42.40
2023-03-03T03:50:10.151Z,36.47
2023-03-03T03:52:36.823Z,45.70
2023-03-03T03:55:04.152Z,42.72
2023-03-03T03:57:30.710Z,37.17
2023-03-03T03:59:57.520Z,43.22
2023-03-03T04:02:24.081Z,34.15
2023-03-03T04:04:50.627Z,43.85
2023-03-03T04:07:17.161Z,40.83
2023-03-03T04:09:43.612Z,42.75
2023-03-03T04:12:10.046Z,46.95
2023-03-03T04:14:36.613Z,43.45
2023-03-03T04:17:03.085Z,42.60
2023-03-03T04:19:29.554Z,38.10
2023-03-03T04:21:56.025Z,46.30
2023-03-03T04:24:22.533Z,50.03
2023-03-03T04:26:48.983Z,50.80
2023-03-03T04:29:15.427Z,50.95
2023-03-03T04:31:41.942Z,48.03
2023-03-03T04:34:08.481Z,47.30
2023-03-03T04:36:34.914Z,49.90
2023-03-03T04:39:01.341Z,47.72
2023-03-03T04:41:27.770Z,54.95
2023-03-03T04:43:54.260Z,52.25
2023-03-03T04:46:20.726Z,54.40
2023-03-03T04:48:47.264Z,56.72
2023-03-03T04:51:14.923Z,38.05
2023-03-03T04:53:41.373Z,56.00
2023-03-03T04:56:08.194Z,56.17
2023-03-03T04:58:34.738Z,46.20
2023-03-03T05:01:01.271Z,53.67
2023-03-03T05:03:27.943Z,58.22
2023-03-03T05:05:54.530Z,54.67
2023-03-03T05:08:21.097Z,54.63
2023-03-03T05:10:51.824Z,48.47
2023-03-03T05:13:18.390Z,64.70
2023-03-03T05:15:52.747Z,69.57
2023-03-03T05:18:19.921Z,53.65
2023-03-03T05:21:02.324Z,51.47
2023-03-03T05:23:29.060Z,55.50
2023-03-03T05:25:55.554Z,58.58
2023-03-03T05:28:22.352Z,54.88
2023-03-03T05:30:49.123Z,55.08
2023-03-03T05:33:18.837Z,51.42
2023-03-03T05:36:03.720Z,57.47
2023-03-03T05:38:30.184Z,58.63
2023-03-03T05:40:56.767Z,60.40
2023-03-03T05:43:23.229Z,59.97
2023-03-03T05:45:55.639Z,55.38
2023-03-03T05:48:30.927Z,64.07
2023-03-03T05:51:00.804Z,56.80
2023-03-03T05:56:25.542Z,60.90
2023-03-03T05:59:03.721Z,53.60
2023-03-03T06:01:30.459Z,61.75
2023-03-03T06:04:15.023Z,59.10
2023-03-03T06:06:41.598Z,63.25
2023-03-03T06:09:08.126Z,68.53
2023-03-03T06:11:34.596Z,66.30
2023-03-03T06:14:01.075Z,63.60
2023-03-03T06:16:27.571Z,57.03
2023-03-03T06:18:54.079Z,63.30
2023-03-03T06:21:20.532Z,61.65
2023-03-03T06:23:47.012Z,62.80
2023-03-03T06:26:13.506Z,69.47
2023-03-03T06:28:39.941Z,60.63
2023-03-03T06:31:06.380Z,56.97
2023-03-03T06:33:32.797Z,62.13
2023-03-03T06:35:59.532Z,66.60
2023-03-03T06:38:26.029Z,60.10
2023-03-03T06:40:52.581Z,62.35
2023-03-03T06:43:19.055Z,58.92
2023-03-03T06:49:17.758Z,60.03
2023-03-03T06:51:46.229Z,59.42
2023-03-03T06:54:30.601Z,57.55
2023-03-03T06:57:05.589Z,41.43
2023-03-03T06:59:32.084Z,54.70
2023-03-03T07:01:58.582Z,59.75
2023-03-03T07:04:31.103Z,63.72
2023-03-03T07:07:00.277Z,63.25
2023-03-03T07:09:30.125Z,52.05
2023-03-03T07:12:19.058Z,56.88
2023-03-03T07:14:55.412Z,60.30
2023-03-03T07:17:24.790Z,65.30
2023-03-03T07:19:51.678Z,61.33
2023-03-03T07:22:25.269Z,64.07
2023-03-03T07:24:57.090Z,56.38
2023-03-03T07:27:30.664Z,61.33
2023-03-03T07:30:27.497Z,51.58
2023-03-03T07:32:58.690Z,69.72
2023-03-03T07:35:40.985Z,70.15
2023-03-03T07:38:25.015Z,62.05
2023-03-03T07:40:55.260Z,67.07
2023-03-03T07:43:38.076Z,66.38
2023-03-03T07:46:10.617Z,58.70
2023-03-03T07:48:42.569Z,47.90
2023-03-03T07:51:20.012Z,53.05
2023-03-03T07:53:47.441Z,56.75
2023-03-03T07:56:20.662Z,54.20
2023-03-03T07:58:47.484Z,57.78
2023-03-03T08:01:28.893Z,52.28
2023-03-03T08:03:56.500Z,54.65
2023-03-03T08:06:32.722Z,48.58
2023-03-03T08:09:18.745Z,56.95
2023-03-03T08:12:14.493Z,48.05
2023-03-03T08:14:40.956Z,61.13
2023-03-03T08:17:17.794Z,58.85
2023-03-03T08:19:44.259Z,46.95
2023-03-03T08:22:16.264Z,52.20
2023-03-03T08:24:42.824Z,54.78
2023-03-03T08:27:09.381Z,60.90
2023-03-03T08:29:35.931Z,58.00
2023-03-03T08:32:02.601Z,52.47
2023-03-03T08:34:29.143Z,54.20
2023-03-03T08:36:58.148Z,64.35
2023-03-03T08:39:24.701Z,51.67
2023-03-03T08:41:51.269Z,51.00
2023-03-03T08:44:17.790Z,51.13
2023-03-03T08:46:44.469Z,49.60
2023-03-03T08:49:10.994Z,53.25
2023-03-03T08:51:37.560Z,47.83
2023-03-03T08:54:04.116Z,50.53
2023-03-03T08:56:30.568Z,47.20
2023-03-03T08:59:02.560Z,31.98
2023-03-03T09:01:31.018Z,38.75
2023-03-03T09:03:57.589Z,47.42
2023-03-03T09:06:24.138Z,43.70
2023-03-03T09:08:50.961Z,42.20
2023-03-03T09:11:24.252Z,35.08
2023-03-03T09:13:53.287Z,36.08
2023-03-03T09:16:22.215Z,39.67
2023-03-03T09:18:48.783Z,44.08
2023-03-03T09:21:28.940Z,34.75
2023-03-03T09:24:01.711Z,32.97
2023-03-03T09:26:29.618Z,34.47
2023-03-03T09:29:14.310Z,40.38
2023-03-03T09:31:45.468Z,28.67
2023-03-03T09:34:37.165Z,41.47
2023-03-03T09:37:28.631Z,43.40
2023-03-03T09:39:57.442Z,41.05
2023-03-03T09:42:29.688Z,34.08
2023-03-03T09:45:17.960Z,31.17
2023-03-03T09:48:18.168Z,31.40
2023-03-03T09:51:03.401Z,38.50
2023-03-03T09:53:51.665Z,37.78
2023-03-03T09:56:23.976Z,37.50
2023-03-03T09:59:42.322Z,41.85
2023-03-03T10:02:36.082Z,41.60
2023-03-03T10:05:14.312Z,27.58
2023-03-03T10:07:46.933Z,36.70
2023-03-03T10:10:35.204Z,37.17
2023-03-03T10:13:19.385Z,38.83
2023-03-03T10:16:17.561Z,38.72
2023-03-03T10:19:01.031Z,34.30
2023-03-03T10:21:39.679Z,35.63
2023-03-03T10:24:38.131Z,40.38
2023-03-03T10:27:36.716Z,32.95
2023-03-03T10:30:41.250Z,41.25
2023-03-03T10:33:26.374Z,31.98
2023-03-03T10:36:30.888Z,33.78
2023-03-03T10:39:34.825Z,36.70
2023-03-03T10:42:16.618Z,31.83
2023-03-03T10:44:58.879Z,38.72
2023-03-03T10:47:47.011Z,34.05
2023-03-03T10:50:55.792Z,42.55
2023-03-03T10:53:31.693Z,27.85
2023-03-03T10:56:01.166Z,34.00
2023-03-03T10:58:30.607Z,39.33
2023-03-03T11:01:45.311Z,33.08
2023-03-03T11:04:33.690Z,39.55
2023-03-03T11:07:47.739Z,42.75
2023-03-03T11:10:35.719Z,38.00
2023-03-03T11:13:32.350Z,36.33
2023-03-03T11:16:34.499Z,35.55
2023-03-03T11:19:11.356Z,42.97
2023-03-03T11:21:46.785Z,37.25
2023-03-03T11:24:19.242Z,38.83
2023-03-03T11:26:51.767Z,38.78
2023-03-03T11:29:21.300Z,35.92
2023-03-03T11:31:57.628Z,36.17
2023-03-03T11:34:47.200Z,35.25
2023-03-03T11:38:09.474Z,37.45
2023-03-03T11:40:49.318Z,43.25
2023-03-03T11:43:36.230Z,43.50
2023-03-03T11:46:11.526Z,31.17
2023-03-03T11:49:00.763Z,36.87
2023-03-03T11:51:48.732Z,37.97
2023-03-03T11:54:28.959Z,32.50
2023-03-03T11:57:12.006Z,34.47
2023-03-03T11:59:47.264Z,33.95
2023-03-03T12:04:54.292Z,33.25
2023-03-03T12:07:57.686Z,35.60
2023-03-03T12:10:31.049Z,29.58
2023-03-03T12:13:16.391Z,25.00
2023-03-03T12:16:25.359Z,34.05
2023-03-03T12:19:18.109Z,29.88
2023-03-03T12:21:56.665Z,35.03
2023-03-03T12:24:23.093Z,30.15
2023-03-03T12:27:02.120Z,38.05
2023-03-03T12:29:41.418Z,36.92
2023-03-03T12:32:30.598Z,29.67
2023-03-03T12:35:41.922Z,33.80
2023-03-03T12:38:28.588Z,26.92
2023-03-03T12:41:08.650Z,32.38
2023-03-03T12:44:00.142Z,29.23
2023-03-03T12:46:29.948Z,31.00
2023-03-03T12:48:56.698Z,33.83
2023-03-03T12:51:41.285Z,28.27
2023-03-03T12:54:26.561Z,32.70
2023-03-03T12:57:03.698Z,29.17
2023-03-03T13:00:11.698Z,32.10
2023-03-03T13:02:58.584Z,31.25
2023-03-03T13:05:45.777Z,26.08
2023-03-03T13:08:23.748Z,26.80
2023-03-03T13:11:00.363Z,28.17
2023-03-03T13:13:29.739Z,26.13
2023-03-03T13:16:06.543Z,26.38
2023-03-03T13:18:49.292Z,27.25
2023-03-03T13:21:34.968Z,23.15
2023-03-03T13:24:32.746Z,25.73
2023-03-03T13:27:07.361Z,28.85
2023-03-03T13:29:36.441Z,26.42
2023-03-03T13:32:17.436Z,28.42
2023-03-03T13:34:58.760Z,25.33
2023-03-03T13:37:46.822Z,25.38
2023-03-03T13:40:13.395Z,24.67
2023-03-03T13:42:45.501Z,24.85
2023-03-03T13:45:31.130Z,27.48
2023-03-03T13:48:00.783Z,25.08
2023-03-03T13:50:36.760Z,28.73
2023-03-03T13:53:38.635Z,29.20
2023-03-03T13:56:13.860Z,28.35
2023-03-03T13:59:04.494Z,25.20
2023-03-03T14:01:34.008Z,25.75
2023-03-03T14:04:03.600Z,26.75
2023-03-03T14:06:30.399Z,28.30
2023-03-03T14:09:04.673Z,27.00
2023-03-03T14:11:43.078Z,27.55
2023-03-03T14:14:28.480Z,25.23
2023-03-03T14:17:04.244Z,27.25
2023-03-03T14:19:54.247Z,24.63
2023-03-03T14:22:46.863Z,27.98
2023-03-03T14:25:15.673Z,27.35
2023-03-03T14:27:48.350Z,26.13
2023-03-03T14:30:43.876Z,27.92
2023-03-03T14:33:10.321Z,34.78
2023-03-03T14:35:56.602Z,28.20
2023-03-03T14:38:45.073Z,26.38
2023-03-03T14:41:11.881Z,25.23
2023-03-03T14:43:39.394Z,28.33
2023-03-03T14:46:27.393Z,29.40
2023-03-03T14:48:56.596Z,31.15
2023-03-03T14:51:27.171Z,29.17
2023-03-03T14:53:53.881Z,31.35
2023-03-03T14:56:30.752Z,28.42
2023-03-03T14:59:18.254Z,30.67
2023-03-03T15:01:45.110Z,29.35
2023-03-03T15:04:14.421Z,30.75
2023-03-03T15:06:43.741Z,27.98
2023-03-03T15:09:30.444Z,29.88
2023-03-03T15:11:58.721Z,31.45
2023-03-03T15:14:45.769Z,28.77
2023-03-03T15:17:38.101Z,27.35
2023-03-03T15:20:22.677Z,27.92
2023-03-03T15:23:19.556Z,26.70
2023-03-03T15:25:58.936Z,26.92
2023-03-03T15:28:56.023Z,30.08
2023-03-03T15:31:30.262Z,30.33
2023-03-03T15:34:28.032Z,30.98
2023-03-03T15:37:13.243Z,29.50
2023-03-03T15:40:13.436Z,32.70
2023-03-03T15:42:46.609Z,33.45
2023-03-03T15:45:29.305Z,29.33
2023-03-03T15:48:07.640Z,33.47
2023-03-03T15:50:47.074Z,32.10
2023-03-03T15:53:37.765Z,34.13
2023-03-03T15:56:16.327Z,32.53
2023-03-03T15:59:04.434Z,31.33
2023-03-03T16:01:34.611Z,31.85
2023-03-03T16:04:09.596Z,32.00
2023-03-03T16:07:22.200Z,30.48
2023-03-03T16:09:57.744Z,30.42
2023-03-03T16:12:47.874Z,30.63
2023-03-03T16:15:17.507Z,28.23
2023-03-03T16:18:08.780Z,29.83
2023-03-03T16:20:40.359Z,32.25
2023-03-03T16:23:31.210Z,33.65
2023-03-03T16:26:35.539Z,33.05
2023-03-03T16:29:20.020Z,30.25
2023-03-03T16:32:12.692Z,29.70
2023-03-03T16:34:58.878Z,33.13
2023-03-03T16:37:36.158Z,28.10
2023-03-03T16:40:23.747Z,28.10
2023-03-03T16:42:59.204Z,31.17
2023-03-03T16:45:31.086Z,31.95
2023-03-03T16:47:57.543Z,33.25
2023-03-03T16:50:48.917Z,29.45
2023-03-03T16:53:18.325Z,35.17
2023-03-03T16:56:08.268Z,31.85
2023-03-03T16:58:41.749Z,34.30
2023-03-03T17:01:11.337Z,34.35
2023-03-03T17:03:50.774Z,38.85
2023-03-03T17:06:35.741Z,31.42
2023-03-03T17:09:31.535Z,37.05
2023-03-03T17:12:23.272Z,32.28
2023-03-03T17:14:55.897Z,30.40
2023-03-03T17:17:33.903Z,32.70
2023-03-03T17:20:22.161Z,33.88
2023-03-03T17:23:08.821Z,32.97
2023-03-03T17:25:39.453Z,33.15
2023-03-03T17:28:15.003Z,38.28
2023-03-03T17:30:56.361Z,34.65
2023-03-03T17:33:51.363Z,33.72
2023-03-03T17:36:28.862Z,35.80
2023-03-03T17:38:57.992Z,35.72
2023-03-03T17:42:01.973Z,35.50
2023-03-03T17:44:39.420Z,33.17
2023-03-03T17:47:10.073Z,36.42
2023-03-03T17:49:51.424Z,34.88
2023-03-03T17:52:36.714Z,31.73
2023-03-03T17:55:40.820Z,35.72
2023-03-03T17:58:34.449Z,34.25
2023-03-03T18:01:17.674Z,37.20
2023-03-03T18:03:56.241Z,37.50
2023-03-03T18:06:55.808Z,37.03
2023-03-03T18:09:48.126Z,34.70
2023-03-03T18:12:36.912Z,33.05
2023-03-03T18:15:17.176Z,35.00
2023-03-03T18:18:01.747Z,45.33
2023-03-03T18:21:01.852Z,33.40
2023-03-03T18:23:28.239Z,37.83
2023-03-03T18:26:00.610Z,39.50
2023-03-03T18:29:27.068Z,39.40
2023-03-03T18:31:53.655Z,44.67
2023-03-03T18:34:20.154Z,50.92
2023-03-03T18:37:19.104Z,42.17
2023-03-03T18:40:09.544Z,44.97
2023-03-03T18:42:40.788Z,46.33
2023-03-03T18:45:20.088Z,44.95
2023-03-03T18:48:09.567Z,38.42
2023-03-03T18:50:42.198Z,40.92
2023-03-03T18:53:14.578Z,38.17
2023-03-03T18:55:44.713Z,46.22
2023-03-03T18:58:14.150Z,42.17
2023-03-03T19:00:50.009Z,57.45
2023-03-03T19:03:54.745Z,44.70
2023-03-03T19:06:32.484Z,53.90
2023-03-03T19:08:59.450Z,43.65
2023-03-03T19:11:51.767Z,67.53
2023-03-03T19:14:39.718Z,49.63
2023-03-03T19:17:18.337Z,51.22
2023-03-03T19:20:12.807Z,47.45
2023-03-03T19:22:46.746Z,42.65
2023-03-03T19:25:18.394Z,41.65
2023-03-03T19:27:59.967Z,42.15
2023-03-03T19:31:05.114Z,44.28
2023-03-03T19:33:46.860Z,48.80
2023-03-03T19:36:32.009Z,50.17
2023-03-03T19:39:01.513Z,42.13
2023-03-03T19:41:56.196Z,48.95
2023-03-03T19:44:53.359Z,41.45
2023-03-03T19:47:33.531Z,22.83
2023-03-03T19:50:12.028Z,36.80
2023-03-03T19:52:45.784Z,50.22
2023-03-03T19:55:33.240Z,58.00
2023-03-03T19:58:09.147Z,51.65
2023-03-03T20:00:43.632Z,52.33
2023-03-03T20:03:28.668Z,56.50
2023-03-03T20:06:30.030Z,61.58
2023-03-03T20:09:26.823Z,41.92
2023-03-03T20:12:05.699Z,55.95
2023-03-03T20:14:45.430Z,55.97
2023-03-03T20:17:21.405Z,45.58
2023-03-03T20:20:13.176Z,53.13
2023-03-03T20:23:02.380Z,48.97
2023-03-03T20:25:35.754Z,50.55
2023-03-03T20:28:27.077Z,52.72
2023-03-03T20:31:25.844Z,52.35
2023-03-03T20:34:01.213Z,53.05
2023-03-03T20:36:32.211Z,54.67
2023-03-03T20:39:01.398Z,54.95
2023-03-03T20:41:27.847Z,51.53
2023-03-03T20:44:26.307Z,57.60
2023-03-03T20:47:11.542Z,57.72
2023-03-03T20:49:40.874Z,52.45
2023-03-03T20:52:16.313Z,47.17
2023-03-03T20:54:57.225Z,48.33
2023-03-03T20:57:42.108Z,48.38
2023-03-03T21:00:21.163Z,42.13
2023-03-03T21:02:50.750Z,37.67
2023-03-03T21:05:22.550Z,38.28
2023-03-03T21:07:56.533Z,30.40
2023-03-03T21:10:26.509Z,26.48
2023-03-03T21:12:58.749Z,21.77
2023-03-03T21:15:35.595Z,18.70
2023-03-03T21:18:20.978Z,16.38
2023-03-03T21:20:47.537Z,14.68
2023-03-03T21:23:14.508Z,12.50
2023-03-03T21:25:41.117Z,15.30
2023-03-03T21:28:21.163Z,12.63
2023-03-03T21:31:00.658Z,15.73
2023-03-03T21:33:42.148Z,14.13
2023-03-03T21:36:14.783Z,17.00
2023-03-03T21:38:41.363Z,16.00
2023-03-03T21:41:08.632Z,12.85
2023-03-03T21:43:37.505Z,14.18
2023-03-03T21:46:04.233Z,12.80
2023-03-03T21:48:30.783Z,6.45
2023-03-03T21:50:57.307Z,17.13
2023-03-03T21:53:24.168Z,14.25
2023-03-03T21:55:51.084Z,16.55
2023-03-03T21:58:17.564Z,12.88
2023-03-03T22:00:44.540Z,14.60
2023-03-03T22:03:12.184Z,15.30
2023-03-03T22:05:38.678Z,16.33
2023-03-03T22:08:05.363Z,16.08
2023-03-03T22:10:32.128Z,15.82
2023-03-03T22:12:58.563Z,11.05
2023-03-03T22:15:25.189Z,12.38
2023-03-03T22:17:51.698Z,15.65
2023-03-03T22:20:18.275Z,9.73
2023-03-03T22:22:44.829Z,10.80
2023-03-03T22:25:11.379Z,10.07
2023-03-03T22:27:37.837Z,15.48
2023-03-03T22:30:04.773Z,15.75
2023-03-03T22:32:31.239Z,17.33
2023-03-03T22:34:57.723Z,13.43
2023-03-03T22:37:24.189Z,25.55
2023-03-03T22:39:50.662Z,28.02
2023-03-03T22:42:17.135Z,22.75
2023-03-03T22:44:45.815Z,17.45
2023-03-03T22:47:12.472Z,23.50
2023-03-03T22:49:38.947Z,23.30
2023-03-03T22:52:05.505Z,18.65
2023-03-03T22:54:32.014Z,17.17
2023-03-03T22:56:58.468Z,16.60
2023-03-03T22:59:24.915Z,14.88
2023-03-03T23:01:51.362Z,21.00
2023-03-03T23:04:20.091Z,16.65
2023-03-03T23:06:46.596Z,16.48
2023-03-03T23:09:13.136Z,16.88
2023-03-03T23:11:39.599Z,25.27
2023-03-03T23:14:06.152Z,24.60
2023-03-03T23:16:32.702Z,18.48
2023-03-03T23:18:59.218Z,23.60
2023-03-03T23:21:25.694Z,24.08
2023-03-03T23:23:52.225Z,16.92
2023-03-03T23:26:18.704Z,18.58
2023-03-03T23:28:45.144Z,19.33
2023-03-03T23:31:11.622Z,22.48
2023-03-03T23:33:38.068Z,20.20
2023-03-03T23:36:04.857Z,19.05
2023-03-03T23:38:31.351Z,20.50
2023-03-03T23:40:57.811Z,13.98
2023-03-03T23:43:24.333Z,15.98
2023-03-03T23:45:50.852Z,21.83
2023-03-03T23:48:17.314Z,19.63
2023-03-03T23:50:43.797Z,24.08
2023-03-03T23:53:10.255Z,17.48
2023-03-03T23:55:37.663Z,14.93
2023-03-03T23:58:05.317Z,17.48
